createdAt,value
2023-08-27T00:00:00.616Z,99730
2023-08-27T00:01:00.661Z,99740
2023-08-27T00:02:00.587Z,99740
2023-08-27T00:03:00.818Z,99740
2023-08-27T00:04:00.557Z,99740
2023-08-27T00:05:00.501Z,99730
2023-08-27T00:06:00.510Z,99730
2023-08-27T00:07:00.504Z,99730
2023-08-27T00:08:00.541Z,99730
2023-08-27T00:09:00.492Z,99730
2023-08-27T00:10:00.825Z,99720
2023-08-27T00:11:01.041Z,99720
2023-08-27T00:12:00.555Z,99720
2023-08-27T00:13:00.712Z,99720
2023-08-27T00:14:00.517Z,99730
2023-08-27T00:15:00.661Z,99730
2023-08-27T00:16:00.595Z,99730
2023-08-27T00:17:00.492Z,99730
2023-08-27T00:18:00.566Z,99730
2023-08-27T00:19:00.505Z,99730
2023-08-27T00:20:00.893Z,99730
2023-08-27T00:21:00.487Z,99730
2023-08-27T00:22:00.466Z,99730
2023-08-27T00:23:00.749Z,99730
2023-08-27T00:24:00.552Z,99730
2023-08-27T00:25:00.504Z,99730
2023-08-27T00:26:00.526Z,99740
2023-08-27T00:27:00.492Z,99740
2023-08-27T00:28:00.493Z,99750
2023-08-27T00:29:00.494Z,99750
2023-08-27T00:30:01.075Z,99750
2023-08-27T00:31:01.044Z,99750
2023-08-27T00:32:03.799Z,99740
2023-08-27T00:33:00.743Z,99740
2023-08-27T00:34:00.474Z,99740
2023-08-27T00:35:01.180Z,99750
2023-08-27T00:36:00.517Z,99750
2023-08-27T00:37:01.469Z,99760
2023-08-27T00:38:00.496Z,99760
2023-08-27T00:39:00.476Z,99760
2023-08-27T00:40:00.486Z,99760
2023-08-27T00:41:00.568Z,99760
2023-08-27T00:42:00.485Z,99760
2023-08-27T00:43:00.796Z,99760
2023-08-27T00:44:00.478Z,99760
2023-08-27T00:45:00.677Z,99760
2023-08-27T00:46:00.578Z,99760
2023-08-27T00:47:00.789Z,99760
2023-08-27T00:48:00.610Z,99760
2023-08-27T00:49:00.546Z,99770
2023-08-27T00:50:00.582Z,99760
2023-08-27T00:51:01.688Z,99760
2023-08-27T00:52:01.390Z,99750
2023-08-27T00:53:00.940Z,99750
2023-08-27T00:54:00.550Z,99750
2023-08-27T00:55:00.615Z,99750
2023-08-27T00:56:00.623Z,99750
2023-08-27T00:57:02.196Z,99750
2023-08-27T00:58:00.574Z,99750
2023-08-27T00:59:01.206Z,99750
2023-08-27T01:00:00.614Z,99750
2023-08-27T01:01:00.601Z,99760
2023-08-27T01:02:00.526Z,99760
2023-08-27T01:03:00.704Z,99760
2023-08-27T01:04:00.513Z,99760
2023-08-27T01:05:00.506Z,99760
2023-08-27T01:06:00.582Z,99760
2023-08-27T01:07:07.224Z,99760
2023-08-27T01:08:11.590Z,99760
2023-08-27T01:09:07.300Z,99760
2023-08-27T01:10:31.284Z,99760
2023-08-27T01:11:13.888Z,99760
2023-08-27T01:12:23.266Z,99760
2023-08-27T01:13:03.492Z,99760
2023-08-27T01:14:03.573Z,99750
2023-08-27T01:15:02.998Z,99750
2023-08-27T01:16:02.321Z,99750
2023-08-27T01:17:02.839Z,99750
2023-08-27T01:18:02.911Z,99750
2023-08-27T01:19:01.394Z,99750
2023-08-27T01:20:00.689Z,99750
2023-08-27T01:21:14.533Z,99750
2023-08-27T01:22:00.480Z,99740
2023-08-27T01:23:00.946Z,99740
2023-08-27T01:24:00.477Z,99740
2023-08-27T01:25:00.503Z,99730
2023-08-27T01:26:01.298Z,99730
2023-08-27T01:27:06.990Z,99720
2023-08-27T01:28:03.970Z,99720
2023-08-27T01:29:09.039Z,99710
2023-08-27T01:30:11.173Z,99710
2023-08-27T01:31:10.027Z,99700
2023-08-27T01:32:05.960Z,99700
2023-08-27T01:33:12.501Z,99700
2023-08-27T01:34:02.943Z,99700
2023-08-27T01:35:02.410Z,99700
2023-08-27T01:36:00.982Z,99700
2023-08-27T01:37:01.272Z,99700
2023-08-27T01:38:00.733Z,99700
2023-08-27T01:39:00.495Z,99710
2023-08-27T01:40:01.755Z,99710
2023-08-27T01:41:00.485Z,99710
2023-08-27T01:42:00.482Z,99710
2023-08-27T01:43:00.816Z,99710
2023-08-27T01:44:00.498Z,99710
2023-08-27T01:45:00.960Z,99700
2023-08-27T01:46:00.482Z,99700
2023-08-27T01:47:00.557Z,99690
2023-08-27T01:48:00.533Z,99690
2023-08-27T01:49:00.524Z,99690
2023-08-27T01:50:00.501Z,99690
2023-08-27T01:51:00.532Z,99680
2023-08-27T01:52:00.478Z,99690
2023-08-27T01:53:00.827Z,99680
2023-08-27T01:54:00.621Z,99680
2023-08-27T01:55:00.508Z,99670
2023-08-27T01:56:00.478Z,99670
2023-08-27T01:57:00.530Z,99660
2023-08-27T01:58:00.482Z,99660
2023-08-27T01:59:00.491Z,99660
2023-08-27T02:00:00.703Z,99660
2023-08-27T02:01:00.609Z,99650
2023-08-27T02:02:00.527Z,99660
2023-08-27T02:03:00.746Z,99660
2023-08-27T02:04:00.508Z,99650
2023-08-27T02:05:00.500Z,99640
2023-08-27T02:06:00.508Z,99640
2023-08-27T02:07:00.468Z,99640
2023-08-27T02:08:00.480Z,99630
2023-08-27T02:09:00.487Z,99630
2023-08-27T02:10:00.480Z,99620
2023-08-27T02:11:00.489Z,99620
2023-08-27T02:12:00.686Z,99630
2023-08-27T02:13:00.875Z,99620
2023-08-27T02:14:00.509Z,99630
2023-08-27T02:15:00.809Z,99630
2023-08-27T02:16:00.496Z,99640
2023-08-27T02:17:00.486Z,99640
2023-08-27T02:18:00.587Z,99650
2023-08-27T02:19:00.630Z,99650
2023-08-27T02:20:00.539Z,99650
2023-08-27T02:21:01.329Z,99650
2023-08-27T02:22:00.466Z,99660
2023-08-27T02:23:00.806Z,99660
2023-08-27T02:24:00.622Z,99670
2023-08-27T02:25:00.628Z,99670
2023-08-27T02:26:00.493Z,99670
2023-08-27T02:27:00.495Z,99670
2023-08-27T02:28:00.476Z,99670
2023-08-27T02:29:00.506Z,99670
2023-08-27T02:30:00.555Z,99670
2023-08-27T02:31:00.544Z,99670
2023-08-27T02:32:00.482Z,99670
2023-08-27T02:33:00.801Z,99670
2023-08-27T02:34:00.509Z,99680
2023-08-27T02:35:00.480Z,99680
2023-08-27T02:36:00.622Z,99670
2023-08-27T02:37:00.505Z,99680
2023-08-27T02:38:00.512Z,99680
2023-08-27T02:39:00.475Z,99680
2023-08-27T02:40:00.498Z,99680
2023-08-27T02:41:00.521Z,99680
2023-08-27T02:42:00.724Z,99680
2023-08-27T02:43:01.747Z,99680
2023-08-27T02:44:00.507Z,99680
2023-08-27T02:45:00.482Z,99680
2023-08-27T02:46:00.494Z,99680
2023-08-27T02:47:00.496Z,99680
2023-08-27T02:48:00.553Z,99690
2023-08-27T02:49:00.760Z,99690
2023-08-27T02:50:00.487Z,99690
2023-08-27T02:51:00.489Z,99690
2023-08-27T02:52:00.501Z,99690
2023-08-27T02:53:00.863Z,99690
2023-08-27T02:54:00.500Z,99690
2023-08-27T02:55:00.500Z,99700
2023-08-27T02:56:00.470Z,99700
2023-08-27T02:57:00.474Z,99700
2023-08-27T02:58:01.159Z,99700
2023-08-27T02:59:00.496Z,99700
2023-08-27T03:00:00.603Z,99710
2023-08-27T03:01:00.653Z,99720
2023-08-27T03:02:00.542Z,99720
2023-08-27T03:03:00.731Z,99720
2023-08-27T03:04:00.473Z,99720
2023-08-27T03:05:02.706Z,99710
2023-08-27T03:06:00.544Z,99720
2023-08-27T03:07:00.481Z,99710
2023-08-27T03:08:00.470Z,99710
2023-08-27T03:09:00.479Z,99710
2023-08-27T03:10:00.615Z,99720
2023-08-27T03:11:00.772Z,99720
2023-08-27T03:12:00.478Z,99720
2023-08-27T03:13:00.763Z,99720
2023-08-27T03:14:00.564Z,99720
2023-08-27T03:15:00.634Z,99720
2023-08-27T03:16:00.542Z,99720
2023-08-27T03:17:00.525Z,99720
2023-08-27T03:18:00.533Z,99720
2023-08-27T03:19:00.477Z,99720
2023-08-27T03:20:00.481Z,99710
2023-08-27T03:21:00.490Z,99710
2023-08-27T03:22:00.516Z,99710
2023-08-27T03:23:00.956Z,99710
2023-08-27T03:24:00.497Z,99710
2023-08-27T03:25:00.497Z,99720
2023-08-27T03:26:00.476Z,99710
2023-08-27T03:27:00.488Z,99720
2023-08-27T03:28:00.485Z,99720
2023-08-27T03:29:00.502Z,99710
2023-08-27T03:30:01.040Z,99710
2023-08-27T03:31:02.167Z,99710
2023-08-27T03:32:00.590Z,99710
2023-08-27T03:33:00.781Z,99710
2023-08-27T03:34:00.489Z,99710
2023-08-27T03:35:00.524Z,99700
2023-08-27T03:36:00.694Z,99700
2023-08-27T03:37:00.488Z,99700
2023-08-27T03:38:00.515Z,99700
2023-08-27T03:39:00.498Z,99700
2023-08-27T03:40:00.812Z,99700
2023-08-27T03:41:00.520Z,99710
2023-08-27T03:42:00.526Z,99710
2023-08-27T03:43:00.909Z,99720
2023-08-27T03:44:00.495Z,99720
2023-08-27T03:45:00.627Z,99720
2023-08-27T03:46:00.541Z,99720
2023-08-27T03:47:00.487Z,99710
2023-08-27T03:48:00.549Z,99710
2023-08-27T03:49:00.955Z,99710
2023-08-27T03:50:00.497Z,99700
2023-08-27T03:51:00.481Z,99700
2023-08-27T03:52:00.537Z,99700
2023-08-27T03:53:00.740Z,99700
2023-08-27T03:54:00.685Z,99690
2023-08-27T03:55:01.818Z,99690
2023-08-27T03:56:02.659Z,99690
2023-08-27T03:57:00.485Z,99690
2023-08-27T03:58:00.511Z,99690
2023-08-27T03:59:00.483Z,99690
2023-08-27T04:00:00.623Z,99690
2023-08-27T04:01:00.657Z,99680
2023-08-27T04:02:00.512Z,99670
2023-08-27T04:03:01.873Z,99660
2023-08-27T04:04:00.538Z,99660
2023-08-27T04:05:03.488Z,99670
2023-08-27T04:06:00.516Z,99670
2023-08-27T04:07:01.139Z,99670
2023-08-27T04:08:00.511Z,99670
2023-08-27T04:09:00.513Z,99660
2023-08-27T04:10:00.563Z,99670
2023-08-27T04:11:01.397Z,99670
2023-08-27T04:12:00.511Z,99670
2023-08-27T04:13:00.768Z,99660
2023-08-27T04:14:00.786Z,99660
2023-08-27T04:15:00.536Z,99660
2023-08-27T04:16:06.064Z,99660
2023-08-27T04:17:00.631Z,99660
2023-08-27T04:18:00.530Z,99660
2023-08-27T04:19:00.570Z,99660
2023-08-27T04:20:00.498Z,99660
2023-08-27T04:21:01.538Z,99660
2023-08-27T04:22:00.540Z,99660
2023-08-27T04:23:00.786Z,99660
2023-08-27T04:24:00.499Z,99660
2023-08-27T04:25:00.525Z,99660
2023-08-27T04:26:00.627Z,99650
2023-08-27T04:27:00.557Z,99650
2023-08-27T04:28:00.493Z,99660
2023-08-27T04:29:00.502Z,99650
2023-08-27T04:30:00.825Z,99660
2023-08-27T04:31:00.524Z,99660
2023-08-27T04:32:00.478Z,99660
2023-08-27T04:33:00.919Z,99660
2023-08-27T04:34:00.475Z,99660
2023-08-27T04:35:00.575Z,99660
2023-08-27T04:36:00.485Z,99660
2023-08-27T04:37:00.507Z,99660
2023-08-27T04:38:00.489Z,99660
2023-08-27T04:39:00.520Z,99660
2023-08-27T04:40:00.477Z,99660
2023-08-27T04:41:00.736Z,99670
2023-08-27T04:42:00.496Z,99670
2023-08-27T04:43:00.971Z,99670
2023-08-27T04:44:00.480Z,99670
2023-08-27T04:45:00.576Z,99670
2023-08-27T04:46:00.563Z,99670
2023-08-27T04:47:00.485Z,99670
2023-08-27T04:48:00.908Z,99670
2023-08-27T04:49:00.501Z,99670
2023-08-27T04:50:00.577Z,99670
2023-08-27T04:51:00.486Z,99670
2023-08-27T04:52:00.475Z,99670
2023-08-27T04:53:00.501Z,99670
2023-08-27T04:54:00.983Z,99670
2023-08-27T04:55:00.940Z,99680
2023-08-27T04:56:00.553Z,99680
2023-08-27T04:57:00.485Z,99680
2023-08-27T04:58:00.925Z,99680
2023-08-27T04:59:00.496Z,99680
2023-08-27T05:00:03.972Z,99690
2023-08-27T05:01:00.533Z,99690
2023-08-27T05:02:00.518Z,99690
2023-08-27T05:03:00.574Z,99690
2023-08-27T05:04:00.481Z,99690
2023-08-27T05:05:00.581Z,99690
2023-08-27T05:06:00.564Z,99690
2023-08-27T05:07:00.481Z,99690
2023-08-27T05:08:00.773Z,99690
2023-08-27T05:09:00.502Z,99680
2023-08-27T05:10:00.505Z,99680
2023-08-27T05:11:00.476Z,99670
2023-08-27T05:12:00.527Z,99670
2023-08-27T05:13:00.497Z,99680
2023-08-27T05:14:00.500Z,99680
2023-08-27T05:15:00.703Z,99680
2023-08-27T05:16:00.544Z,99680
2023-08-27T05:17:00.482Z,99680
2023-08-27T05:18:03.207Z,99690
2023-08-27T05:19:00.472Z,99690
2023-08-27T05:20:00.566Z,99690
2023-08-27T05:21:00.476Z,99690
2023-08-27T05:22:01.567Z,99690
2023-08-27T05:23:00.777Z,99690
2023-08-27T05:24:00.563Z,99690
2023-08-27T05:25:00.484Z,99690
2023-08-27T05:26:00.496Z,99690
2023-08-27T05:27:00.673Z,99680
2023-08-27T05:28:01.191Z,99680
2023-08-27T05:29:00.480Z,99670
2023-08-27T05:30:00.702Z,99670
2023-08-27T05:31:00.521Z,99660
2023-08-27T05:32:00.498Z,99660
2023-08-27T05:33:00.556Z,99650
2023-08-27T05:34:00.507Z,99650
2023-08-27T05:35:00.491Z,99650
2023-08-27T05:36:00.537Z,99650
2023-08-27T05:37:00.483Z,99640
2023-08-27T05:38:01.105Z,99640
2023-08-27T05:39:00.538Z,99640
2023-08-27T05:40:00.829Z,99640
2023-08-27T05:41:00.515Z,99640
2023-08-27T05:42:00.506Z,99650
2023-08-27T05:43:00.521Z,99650
2023-08-27T05:44:00.534Z,99650
2023-08-27T05:45:00.721Z,99650
2023-08-27T05:46:00.486Z,99660
2023-08-27T05:47:00.556Z,99650
2023-08-27T05:48:00.950Z,99650
2023-08-27T05:49:00.768Z,99650
2023-08-27T05:50:00.488Z,99650
2023-08-27T05:51:00.784Z,99640
2023-08-27T05:52:00.478Z,99640
2023-08-27T05:53:02.045Z,99640
2023-08-27T05:54:00.487Z,99640
2023-08-27T05:55:00.497Z,99640
2023-08-27T05:56:00.512Z,99640
2023-08-27T05:57:00.479Z,99640
2023-08-27T05:58:00.750Z,99640
2023-08-27T05:59:00.503Z,99640
2023-08-27T06:00:00.492Z,99640
2023-08-27T06:01:00.531Z,99640
2023-08-27T06:02:00.498Z,99640
2023-08-27T06:03:00.528Z,99640
2023-08-27T06:04:00.519Z,99640
2023-08-27T06:05:00.512Z,99640
2023-08-27T06:06:00.488Z,99630
2023-08-27T06:07:00.512Z,99630
2023-08-27T06:08:00.810Z,99630
2023-08-27T06:09:00.510Z,99630
2023-08-27T06:10:00.505Z,99630
2023-08-27T06:11:00.537Z,99630
2023-08-27T06:12:00.484Z,99630
2023-08-27T06:13:01.645Z,99640
2023-08-27T06:14:00.488Z,99640
2023-08-27T06:15:00.497Z,99630
2023-08-27T06:16:00.582Z,99630
2023-08-27T06:17:00.566Z,99630
2023-08-27T06:18:01.600Z,99630
2023-08-27T06:19:00.920Z,99620
2023-08-27T06:20:00.511Z,99620
2023-08-27T06:21:00.492Z,99620
2023-08-27T06:22:00.513Z,99610
2023-08-27T06:23:02.612Z,99620
2023-08-27T06:24:00.553Z,99620
2023-08-27T06:25:03.659Z,99630
2023-08-27T06:26:02.321Z,99630
2023-08-27T06:27:00.468Z,99630
2023-08-27T06:28:03.144Z,99630
2023-08-27T06:29:00.757Z,99630
2023-08-27T06:30:00.561Z,99630
2023-08-27T06:31:00.481Z,99630
2023-08-27T06:32:00.527Z,99630
2023-08-27T06:33:01.601Z,99620
2023-08-27T06:34:00.515Z,99620
2023-08-27T06:35:00.625Z,99620
2023-08-27T06:36:00.572Z,99630
2023-08-27T06:37:00.470Z,99630
2023-08-27T06:38:00.819Z,99630
2023-08-27T06:39:00.477Z,99640
2023-08-27T06:40:00.569Z,99640
2023-08-27T06:41:00.592Z,99640
2023-08-27T06:42:00.476Z,99640
2023-08-27T06:43:00.501Z,99640
2023-08-27T06:44:00.481Z,99640
2023-08-27T06:45:01.889Z,99630
2023-08-27T06:46:00.514Z,99620
2023-08-27T06:47:00.570Z,99620
2023-08-27T06:48:01.124Z,99610
2023-08-27T06:49:00.490Z,99600
2023-08-27T06:50:00.533Z,99610
2023-08-27T06:51:00.520Z,99610
2023-08-27T06:52:00.527Z,99610
2023-08-27T06:53:00.539Z,99610
2023-08-27T06:54:00.962Z,99620
2023-08-27T06:55:01.070Z,99620
2023-08-27T06:56:00.476Z,99620
2023-08-27T06:57:00.505Z,99610
2023-08-27T06:58:00.711Z,99610
2023-08-27T06:59:00.482Z,99610
2023-08-27T07:00:00.481Z,99610
2023-08-27T07:01:01.294Z,99610
2023-08-27T07:02:00.649Z,99590
2023-08-27T07:03:00.610Z,99590
2023-08-27T07:04:00.564Z,99580
2023-08-27T07:05:00.549Z,99570
2023-08-27T07:06:00.480Z,99580
2023-08-27T07:07:00.520Z,99580
2023-08-27T07:08:00.752Z,99580
2023-08-27T07:09:01.422Z,99580
2023-08-27T07:10:00.475Z,99580
2023-08-27T07:11:00.682Z,99580
2023-08-27T07:12:00.692Z,99580
2023-08-27T07:13:00.501Z,99570
2023-08-27T07:14:00.579Z,99570
2023-08-27T07:15:02.761Z,99570
2023-08-27T07:16:00.516Z,99570
2023-08-27T07:17:00.473Z,99570
2023-08-27T07:18:00.726Z,99570
2023-08-27T07:19:00.507Z,99560
2023-08-27T07:20:01.912Z,99560
2023-08-27T07:21:00.482Z,99560
2023-08-27T07:22:00.472Z,99560
2023-08-27T07:23:00.482Z,99560
2023-08-27T07:24:00.735Z,99560
2023-08-27T07:25:00.558Z,99560
2023-08-27T07:26:00.540Z,99570
2023-08-27T07:27:00.554Z,99570
2023-08-27T07:28:00.851Z,99570
2023-08-27T07:29:00.689Z,99570
2023-08-27T07:30:00.549Z,99570
2023-08-27T07:31:00.509Z,99570
2023-08-27T07:32:00.525Z,99580
2023-08-27T07:33:00.492Z,99580
2023-08-27T07:34:00.615Z,99570
2023-08-27T07:35:00.649Z,99570
2023-08-27T07:36:00.490Z,99580
2023-08-27T07:37:00.558Z,99580
2023-08-27T07:38:00.933Z,99570
2023-08-27T07:39:00.491Z,99570
2023-08-27T07:40:00.486Z,99570
2023-08-27T07:41:00.484Z,99570
2023-08-27T07:42:00.483Z,99570
2023-08-27T07:43:00.516Z,99570
2023-08-27T07:44:00.503Z,99570
2023-08-27T07:45:01.036Z,99580
2023-08-27T07:46:00.613Z,99580
2023-08-27T07:47:00.546Z,99580
2023-08-27T07:48:01.080Z,99580
2023-08-27T07:49:00.507Z,99580
2023-08-27T07:50:00.536Z,99580
2023-08-27T07:51:02.228Z,99570
2023-08-27T07:52:00.494Z,99580
2023-08-27T07:53:00.489Z,99580
2023-08-27T07:54:00.519Z,99580
2023-08-27T07:55:00.513Z,99580
2023-08-27T07:56:00.522Z,99580
2023-08-27T07:57:00.600Z,99580
2023-08-27T07:58:00.894Z,99580
2023-08-27T07:59:00.476Z,99580
2023-08-27T08:00:00.509Z,99580
2023-08-27T08:01:00.595Z,99590
2023-08-27T08:02:00.584Z,99590
2023-08-27T08:03:00.795Z,99590
2023-08-27T08:04:00.555Z,99590
2023-08-27T08:05:00.473Z,99590
2023-08-27T08:06:00.525Z,99590
2023-08-27T08:07:00.550Z,99590
2023-08-27T08:08:00.899Z,99590
2023-08-27T08:09:00.478Z,99580
2023-08-27T08:10:00.662Z,99580
2023-08-27T08:11:01.329Z,99570
2023-08-27T08:12:00.553Z,99560
2023-08-27T08:13:00.486Z,99560
2023-08-27T08:14:00.522Z,99560
2023-08-27T08:15:00.642Z,99560
2023-08-27T08:16:00.623Z,99560
2023-08-27T08:17:00.555Z,99570
2023-08-27T08:18:00.673Z,99570
2023-08-27T08:19:00.543Z,99570
2023-08-27T08:20:00.495Z,99570
2023-08-27T08:21:00.509Z,99570
2023-08-27T08:22:00.798Z,99580
2023-08-27T08:23:00.553Z,99580
2023-08-27T08:24:00.494Z,99570
2023-08-27T08:25:00.565Z,99580
2023-08-27T08:26:00.825Z,99570
2023-08-27T08:27:00.503Z,99570
2023-08-27T08:28:00.997Z,99570
2023-08-27T08:29:00.476Z,99560
2023-08-27T08:30:01.466Z,99560
2023-08-27T08:31:00.531Z,99560
2023-08-27T08:32:01.087Z,99560
2023-08-27T08:33:00.561Z,99560
2023-08-27T08:34:00.502Z,99570
2023-08-27T08:35:00.957Z,99570
2023-08-27T08:36:00.607Z,99570
2023-08-27T08:37:00.475Z,99580
2023-08-27T08:38:00.751Z,99580
2023-08-27T08:39:00.480Z,99580
2023-08-27T08:40:00.527Z,99580
2023-08-27T08:41:02.201Z,99580
2023-08-27T08:42:12.036Z,99570
2023-08-27T08:43:00.512Z,99580
2023-08-27T08:44:07.988Z,99580
2023-08-27T08:45:13.588Z,99590
2023-08-27T08:46:03.129Z,99590
2023-08-27T08:47:00.980Z,99590
2023-08-27T08:48:01.034Z,99590
2023-08-27T08:49:02.629Z,99590
2023-08-27T08:50:05.254Z,99590
2023-08-27T08:51:03.158Z,99590
2023-08-27T08:52:06.111Z,99580
2023-08-27T08:53:12.867Z,99580
2023-08-27T08:54:04.529Z,99580
2023-08-27T08:55:01.998Z,99580
2023-08-27T08:56:05.385Z,99580
2023-08-27T08:57:02.322Z,99580
2023-08-27T08:58:06.100Z,99580
2023-08-27T08:59:00.595Z,99590
2023-08-27T09:00:02.135Z,99590
2023-08-27T09:01:02.086Z,99590
2023-08-27T09:02:00.764Z,99600
2023-08-27T09:03:02.349Z,99600
2023-08-27T09:04:01.415Z,99590
2023-08-27T09:05:01.558Z,99600
2023-08-27T09:06:01.296Z,99590
2023-08-27T09:07:02.390Z,99590
2023-08-27T09:08:02.898Z,99580
2023-08-27T09:09:01.193Z,99580
2023-08-27T09:10:01.497Z,99590
2023-08-27T09:11:00.791Z,99590
2023-08-27T09:12:01.428Z,99590
2023-08-27T09:13:01.969Z,99590
2023-08-27T09:14:02.693Z,99580
2023-08-27T09:15:00.967Z,99580
2023-08-27T09:16:00.517Z,99570
2023-08-27T09:17:00.535Z,99570
2023-08-27T09:18:01.946Z,99570
2023-08-27T09:19:00.881Z,99570
2023-08-27T09:20:00.518Z,99570
2023-08-27T09:21:01.257Z,99570
2023-08-27T09:22:00.536Z,99570
2023-08-27T09:23:00.556Z,99570
2023-08-27T09:24:00.605Z,99570
2023-08-27T09:25:00.617Z,99570
2023-08-27T09:26:01.624Z,99580
2023-08-27T09:27:00.487Z,99570
2023-08-27T09:28:00.873Z,99570
2023-08-27T09:29:00.489Z,99580
2023-08-27T09:30:01.302Z,99580
2023-08-27T09:31:00.668Z,99570
2023-08-27T09:32:00.564Z,99570
2023-08-27T09:33:01.183Z,99580
2023-08-27T09:34:00.497Z,99580
2023-08-27T09:35:02.707Z,99580
2023-08-27T09:36:00.550Z,99580
2023-08-27T09:37:00.531Z,99580
2023-08-27T09:38:00.758Z,99580
2023-08-27T09:39:07.097Z,99580
2023-08-27T09:40:00.876Z,99580
2023-08-27T09:41:17.118Z,99580
2023-08-27T09:42:00.525Z,99580
2023-08-27T09:43:03.915Z,99580
2023-08-27T09:44:00.528Z,99580
2023-08-27T09:45:00.616Z,99580
2023-08-27T09:46:00.518Z,99580
2023-08-27T09:47:04.365Z,99580
2023-08-27T09:48:01.862Z,99580
2023-08-27T09:49:02.538Z,99580
2023-08-27T09:50:04.155Z,99580
2023-08-27T09:51:04.637Z,99580
2023-08-27T09:52:00.482Z,99580
2023-08-27T09:53:05.072Z,99580
2023-08-27T09:54:00.598Z,99580
2023-08-27T09:55:00.525Z,99580
2023-08-27T09:56:00.596Z,99580
2023-08-27T09:57:00.513Z,99580
2023-08-27T09:58:02.727Z,99580
2023-08-27T09:59:04.851Z,99570
2023-08-27T10:00:00.507Z,99580
2023-08-27T10:01:00.993Z,99580
2023-08-27T10:02:00.477Z,99590
2023-08-27T10:03:00.814Z,99580
2023-08-27T10:04:01.603Z,99590
2023-08-27T10:05:00.536Z,99590
2023-08-27T10:06:01.089Z,99590
2023-08-27T10:07:00.487Z,99580
2023-08-27T10:08:02.848Z,99580
2023-08-27T10:09:00.523Z,99580
2023-08-27T10:10:02.197Z,99570
2023-08-27T10:11:08.944Z,99570
2023-08-27T10:12:02.833Z,99570
2023-08-27T10:13:00.947Z,99570
2023-08-27T10:14:01.216Z,99570
2023-08-27T10:15:01.769Z,99570
2023-08-27T10:16:01.152Z,99570
2023-08-27T10:17:00.871Z,99570
2023-08-27T10:18:01.927Z,99570
2023-08-27T10:19:01.004Z,99580
2023-08-27T10:20:01.615Z,99580
2023-08-27T10:21:00.658Z,99580
2023-08-27T10:22:00.910Z,99580
2023-08-27T10:23:02.024Z,99580
2023-08-27T10:24:01.428Z,99580
2023-08-27T10:25:02.297Z,99580
2023-08-27T10:26:01.078Z,99580
2023-08-27T10:27:02.105Z,99580
2023-08-27T10:28:01.409Z,99580
2023-08-27T10:29:02.672Z,99580
2023-08-27T10:30:00.562Z,99570
2023-08-27T10:31:00.972Z,99560
2023-08-27T10:32:00.547Z,99550
2023-08-27T10:33:01.870Z,99550
2023-08-27T10:34:00.553Z,99550
2023-08-27T10:35:02.406Z,99550
2023-08-27T10:36:11.125Z,99560
2023-08-27T10:37:05.847Z,99560
2023-08-27T10:38:03.475Z,99560
2023-08-27T10:39:03.252Z,99550
2023-08-27T10:40:01.468Z,99540
2023-08-27T10:41:00.884Z,99550
2023-08-27T10:42:00.644Z,99540
2023-08-27T10:43:08.888Z,99550
2023-08-27T10:44:01.234Z,99560
2023-08-27T10:45:18.128Z,99570
2023-08-27T10:46:30.770Z,99570
2023-08-27T10:47:09.068Z,99570
2023-08-27T10:48:36.084Z,99570
2023-08-27T10:49:00.608Z,99570
2023-08-27T10:50:00.498Z,99560
2023-08-27T10:51:10.105Z,99560
2023-08-27T10:52:12.030Z,99550
2023-08-27T10:53:03.320Z,99550
2023-08-27T10:54:01.262Z,99550
2023-08-27T10:55:01.177Z,99550
2023-08-27T10:56:00.482Z,99550
2023-08-27T10:57:14.976Z,99550
2023-08-27T10:58:17.200Z,99550
2023-08-27T10:59:09.874Z,99560
2023-08-27T11:00:09.403Z,99560
2023-08-27T11:01:00.496Z,99560
2023-08-27T11:02:02.485Z,99560
2023-08-27T11:03:15.339Z,99560
2023-08-27T11:04:02.354Z,99560
2023-08-27T11:05:05.956Z,99550
2023-08-27T11:06:15.891Z,99550
2023-08-27T11:07:08.196Z,99550
2023-08-27T11:08:00.864Z,99560
2023-08-27T11:09:03.379Z,99560
2023-08-27T11:10:02.838Z,99570
2023-08-27T11:11:10.917Z,99570
2023-08-27T11:12:03.276Z,99570
2023-08-27T11:13:00.522Z,99560
2023-08-27T11:14:14.307Z,99570
2023-08-27T11:15:16.187Z,99560
2023-08-27T11:16:00.525Z,99570
2023-08-27T11:17:03.137Z,99560
2023-08-27T11:18:20.610Z,99560
2023-08-27T11:19:00.486Z,99560
2023-08-27T11:20:20.016Z,99560
2023-08-27T11:21:18.109Z,99560
2023-08-27T11:22:18.122Z,99560
2023-08-27T11:23:02.000Z,99550
2023-08-27T11:24:13.016Z,99540
2023-08-27T11:25:01.346Z,99530
2023-08-27T11:26:01.180Z,99530
2023-08-27T11:27:00.881Z,99520
2023-08-27T11:28:01.280Z,99520
2023-08-27T11:29:01.206Z,99510
2023-08-27T11:30:00.706Z,99510
2023-08-27T11:31:02.124Z,99500
2023-08-27T11:32:00.513Z,99490
2023-08-27T11:33:00.512Z,99490
2023-08-27T11:34:01.463Z,99480
2023-08-27T11:35:00.492Z,99480
2023-08-27T11:36:00.484Z,99490
2023-08-27T11:37:00.881Z,99480
2023-08-27T11:38:00.833Z,99490
2023-08-27T11:39:00.957Z,99490
2023-08-27T11:40:00.596Z,99490
2023-08-27T11:41:00.476Z,99490
2023-08-27T11:42:01.591Z,99490
2023-08-27T11:43:00.495Z,99490
2023-08-27T11:44:00.893Z,99490
2023-08-27T11:45:00.523Z,99480
2023-08-27T11:46:00.524Z,99490
2023-08-27T11:47:02.722Z,99490
2023-08-27T11:48:08.787Z,99490
2023-08-27T11:49:00.674Z,99490
2023-08-27T11:50:07.056Z,99490
2023-08-27T11:51:00.601Z,99490
2023-08-27T11:52:01.141Z,99490
2023-08-27T11:53:00.940Z,99490
2023-08-27T11:54:09.358Z,99490
2023-08-27T11:55:00.548Z,99490
2023-08-27T11:56:00.708Z,99490
2023-08-27T11:57:00.950Z,99490
2023-08-27T11:58:00.749Z,99490
2023-08-27T11:59:00.512Z,99490
2023-08-27T12:00:08.750Z,99490
2023-08-27T12:01:00.531Z,99490
2023-08-27T12:02:02.133Z,99490
2023-08-27T12:03:00.860Z,99490
2023-08-27T12:04:01.480Z,99490
2023-08-27T12:05:01.007Z,99490
2023-08-27T12:06:00.490Z,99480
2023-08-27T12:07:02.814Z,99480
2023-08-27T12:08:06.450Z,99480
2023-08-27T12:09:00.479Z,99480
2023-08-27T12:10:00.553Z,99480
2023-08-27T12:11:01.645Z,99480
2023-08-27T12:12:03.568Z,99490
2023-08-27T12:13:00.501Z,99490
2023-08-27T12:14:01.174Z,99490
2023-08-27T12:15:00.487Z,99480
2023-08-27T12:16:00.477Z,99480
2023-08-27T12:17:03.677Z,99480
2023-08-27T12:18:00.838Z,99480
2023-08-27T12:19:03.418Z,99480
2023-08-27T12:20:01.913Z,99480
2023-08-27T12:21:04.669Z,99480
2023-08-27T12:22:00.489Z,99480
2023-08-27T12:23:16.077Z,99480
2023-08-27T12:24:00.495Z,99470
2023-08-27T12:25:00.507Z,99470
2023-08-27T12:26:02.023Z,99470
2023-08-27T12:27:02.934Z,99470
2023-08-27T12:28:00.765Z,99470
2023-08-27T12:29:00.526Z,99470
2023-08-27T12:30:00.664Z,99460
2023-08-27T12:31:00.583Z,99460
2023-08-27T12:32:17.657Z,99450
2023-08-27T12:33:00.502Z,99450
2023-08-27T12:34:04.273Z,99450
2023-08-27T12:35:01.197Z,99450
2023-08-27T12:36:04.692Z,99450
2023-08-27T12:37:00.527Z,99450
2023-08-27T12:38:00.768Z,99460
2023-08-27T12:39:00.508Z,99460
2023-08-27T12:40:00.553Z,99450
2023-08-27T12:41:01.105Z,99450
2023-08-27T12:42:00.780Z,99450
2023-08-27T12:43:00.485Z,99450
2023-08-27T12:44:00.484Z,99460
2023-08-27T12:45:00.492Z,99460
2023-08-27T12:46:00.527Z,99470
2023-08-27T12:47:01.449Z,99470
2023-08-27T12:48:04.490Z,99460
2023-08-27T12:49:00.468Z,99460
2023-08-27T12:50:00.500Z,99460
2023-08-27T12:51:01.214Z,99450
2023-08-27T12:52:00.841Z,99460